sensor_id;sensor_type;location;lat;lon;timestamp;pressure;altitude;pressure_sealevel;temperature;humidity
47280;BME280;34064;44.942;0.008;2023-06-10T00:00:11;97996.69;;;23.51;60.25
47280;BME280;34064;44.942;0.008;2023-06-10T00:02:39;97997.50;;;23.52;59.96
47280;BME280;34064;44.942;0.008;2023-06-10T00:05:06;97993.16;;;23.51;60.15
47280;BME280;34064;44.942;0.008;2023-06-10T00:07:34;98005.88;;;23.50;60.12
47280;BME280;34064;44.942;0.008;2023-06-10T00:10:07;98001.50;;;23.49;60.00
47280;BME280;34064;44.942;0.008;2023-06-10T00:12:34;98004.41;;;23.48;60.25
47280;BME280;34064;44.942;0.008;2023-06-10T00:15:07;98000.06;;;23.47;60.36
47280;BME280;34064;44.942;0.008;2023-06-10T00:17:35;97997.78;;;23.44;59.98
47280;BME280;34064;44.942;0.008;2023-06-10T00:20:08;97998.84;;;23.43;60.10
47280;BME280;34064;44.942;0.008;2023-06-10T00:22:37;98009.06;;;23.41;60.41
47280;BME280;34064;44.942;0.008;2023-06-10T00:25:06;98016.56;;;23.39;60.20
47280;BME280;34064;44.942;0.008;2023-06-10T00:27:33;98020.16;;;23.32;60.24
47280;BME280;34064;44.942;0.008;2023-06-10T00:30:07;98026.25;;;23.28;60.20
47280;BME280;34064;44.942;0.008;2023-06-10T00:32:35;98023.16;;;23.24;60.26
47280;BME280;34064;44.942;0.008;2023-06-10T00:35:03;98025.25;;;23.22;60.20
47280;BME280;34064;44.942;0.008;2023-06-10T00:37:30;98019.81;;;23.22;60.23
47280;BME280;34064;44.942;0.008;2023-06-10T00:39:58;98014.41;;;23.22;60.21
47280;BME280;34064;44.942;0.008;2023-06-10T00:42:25;98014.41;;;23.22;60.31
47280;BME280;34064;44.942;0.008;2023-06-10T00:44:53;98008.16;;;23.21;60.31
47280;BME280;34064;44.942;0.008;2023-06-10T00:47:20;97992.72;;;23.22;60.23
47280;BME280;34064;44.942;0.008;2023-06-10T00:49:47;97994.63;;;23.21;60.43
47280;BME280;34064;44.942;0.008;2023-06-10T00:52:15;98002.94;;;23.20;60.06
47280;BME280;34064;44.942;0.008;2023-06-10T00:54:43;98008.19;;;23.15;60.29
47280;BME280;34064;44.942;0.008;2023-06-10T00:57:10;98007.19;;;23.02;60.29
47280;BME280;34064;44.942;0.008;2023-06-10T00:59:42;98003.47;;;22.97;60.47
47280;BME280;34064;44.942;0.008;2023-06-10T01:02:12;98014.97;;;22.92;60.44
47280;BME280;34064;44.942;0.008;2023-06-10T01:04:38;98015.63;;;22.87;60.56
47280;BME280;34064;44.942;0.008;2023-06-10T01:07:09;98019.59;;;22.85;60.92
47280;BME280;34064;44.942;0.008;2023-06-10T01:12:33;98017.38;;;22.75;60.90
47280;BME280;34064;44.942;0.008;2023-06-10T01:15:03;98021.94;;;22.74;60.75
47280;BME280;34064;44.942;0.008;2023-06-10T01:17:30;98022.38;;;22.71;60.79
47280;BME280;34064;44.942;0.008;2023-06-10T01:19:58;98018.44;;;22.67;60.53
47280;BME280;34064;44.942;0.008;2023-06-10T01:22:28;98023.22;;;22.65;60.57
47280;BME280;34064;44.942;0.008;2023-06-10T01:24:57;98022.59;;;22.63;61.03
47280;BME280;34064;44.942;0.008;2023-06-10T01:27:29;98027.41;;;22.61;60.98
47280;BME280;34064;44.942;0.008;2023-06-10T01:30:04;98028.47;;;22.60;60.74
47280;BME280;34064;44.942;0.008;2023-06-10T01:32:40;98027.84;;;22.58;60.56
47280;BME280;34064;44.942;0.008;2023-06-10T01:35:08;98032.63;;;22.56;60.81
47280;BME280;34064;44.942;0.008;2023-06-10T01:37:37;98032.84;;;22.54;60.50
47280;BME280;34064;44.942;0.008;2023-06-10T01:40:05;98030.38;;;22.53;60.65
47280;BME280;34064;44.942;0.008;2023-06-10T01:42:33;98033.50;;;22.50;60.38
47280;BME280;34064;44.942;0.008;2023-06-10T01:45:00;98029.34;;;22.47;60.56
47280;BME280;34064;44.942;0.008;2023-06-10T01:47:26;98036.22;;;22.43;60.65
47280;BME280;34064;44.942;0.008;2023-06-10T01:49:52;98030.78;;;22.36;60.94
47280;BME280;34064;44.942;0.008;2023-06-10T01:52:19;98034.97;;;22.32;60.91
47280;BME280;34064;44.942;0.008;2023-06-10T01:54:45;98026.47;;;22.28;60.97
47280;BME280;34064;44.942;0.008;2023-06-10T01:57:12;98030.19;;;22.27;60.78
47280;BME280;34064;44.942;0.008;2023-06-10T01:59:38;98033.94;;;22.26;60.72
47280;BME280;34064;44.942;0.008;2023-06-10T02:02:05;98043.09;;;22.25;60.69
47280;BME280;34064;44.942;0.008;2023-06-10T02:04:31;98050.19;;;22.26;60.59
47280;BME280;34064;44.942;0.008;2023-06-10T02:06:58;98048.53;;;22.19;61.22
47280;BME280;34064;44.942;0.008;2023-06-10T02:09:25;98055.19;;;22.16;61.04
47280;BME280;34064;44.942;0.008;2023-06-10T02:11:51;98060.59;;;22.09;61.15
47280;BME280;34064;44.942;0.008;2023-06-10T02:14:17;98052.91;;;22.06;61.13
47280;BME280;34064;44.942;0.008;2023-06-10T02:16:44;98057.28;;;22.07;60.91
47280;BME280;34064;44.942;0.008;2023-06-10T02:19:13;98053.97;;;22.05;60.99
47280;BME280;34064;44.942;0.008;2023-06-10T02:21:39;98050.19;;;22.06;61.16
47280;BME280;34064;44.942;0.008;2023-06-10T02:24:06;98049.16;;;22.07;61.65
47280;BME280;34064;44.942;0.008;2023-06-10T02:26:32;98041.66;;;22.09;61.50
47280;BME280;34064;44.942;0.008;2023-06-10T02:28:59;98043.97;;;22.12;61.19
47280;BME280;34064;44.942;0.008;2023-06-10T02:31:25;98046.44;;;22.14;61.17
47280;BME280;34064;44.942;0.008;2023-06-10T02:33:52;98042.06;;;22.13;61.52
47280;BME280;34064;44.942;0.008;2023-06-10T02:36:18;98040.22;;;22.13;61.42
47280;BME280;34064;44.942;0.008;2023-06-10T02:38:45;98044.38;;;22.16;61.37
47280;BME280;34064;44.942;0.008;2023-06-10T02:41:11;98046.84;;;22.18;61.06
47280;BME280;34064;44.942;0.008;2023-06-10T02:43:37;98052.25;;;22.18;61.50
47280;BME280;34064;44.942;0.008;2023-06-10T02:46:04;98053.31;;;22.17;61.96
47280;BME280;34064;44.942;0.008;2023-06-10T02:48:31;98052.69;;;22.15;61.58
47280;BME280;34064;44.942;0.008;2023-06-10T02:50:57;98050.19;;;22.13;61.41
47280;BME280;34064;44.942;0.008;2023-06-10T02:53:24;98048.34;;;22.13;61.89
47280;BME280;34064;44.942;0.008;2023-06-10T02:55:50;98047.06;;;22.16;61.65
47280;BME280;34064;44.942;0.008;2023-06-10T02:58:16;98051.22;;;22.19;61.81
47280;BME280;34064;44.942;0.008;2023-06-10T03:00:43;98048.09;;;22.22;62.09
47280;BME280;34064;44.942;0.008;2023-06-10T03:03:11;98046.63;;;22.26;62.41
47280;BME280;34064;44.942;0.008;2023-06-10T03:05:38;98050.19;;;22.26;62.61
47280;BME280;34064;44.942;0.008;2023-06-10T03:08:04;98050.38;;;22.25;62.81
47280;BME280;34064;44.942;0.008;2023-06-10T03:10:31;98050.56;;;22.30;62.70
47280;BME280;34064;44.942;0.008;2023-06-10T03:12:59;98044.94;;;22.38;62.57
47280;BME280;34064;44.942;0.008;2023-06-10T03:15:25;98058.09;;;22.41;62.47
47280;BME280;34064;44.942;0.008;2023-06-10T03:17:52;98052.22;;;22.44;62.63
47280;BME280;34064;44.942;0.008;2023-06-10T03:20:18;98063.03;;;22.44;63.20
47280;BME280;34064;44.942;0.008;2023-06-10T03:22:45;98059.31;;;22.46;63.19
47280;BME280;34064;44.942;0.008;2023-06-10T03:25:11;98057.84;;;22.50;63.53
47280;BME280;34064;44.942;0.008;2023-06-10T03:27:41;98059.91;;;22.54;63.51
47280;BME280;34064;44.942;0.008;2023-06-10T03:30:09;98061.34;;;22.57;64.09
47280;BME280;34064;44.942;0.008;2023-06-10T03:32:35;98053.84;;;22.59;63.62
47280;BME280;34064;44.942;0.008;2023-06-10T03:35:02;98058.22;;;22.60;63.68
47280;BME280;34064;44.942;0.008;2023-06-10T03:37:29;98065.91;;;22.63;63.70
47280;BME280;34064;44.942;0.008;2023-06-10T03:39:56;98060.91;;;22.67;63.83
47280;BME280;34064;44.942;0.008;2023-06-10T03:42:22;98065.88;;;22.70;63.66
47280;BME280;34064;44.942;0.008;2023-06-10T03:44:49;98062.97;;;22.71;63.77
47280;BME280;34064;44.942;0.008;2023-06-10T03:47:15;98063.56;;;22.73;63.84
47280;BME280;34064;44.942;0.008;2023-06-10T03:49:42;98058.78;;;22.75;64.82
47280;BME280;34064;44.942;0.008;2023-06-10T03:52:08;98060.03;;;22.80;63.80
47280;BME280;34064;44.942;0.008;2023-06-10T03:54:35;98056.28;;;22.81;63.71
47280;BME280;34064;44.942;0.008;2023-06-10T03:57:03;98066.66;;;22.84;63.75
47280;BME280;34064;44.942;0.008;2023-06-10T03:59:31;98061.88;;;22.86;63.76
47280;BME280;34064;44.942;0.008;2023-06-10T04:01:58;98071.44;;;22.88;63.98
47280;BME280;34064;44.942;0.008;2023-06-10T04:04:25;98072.28;;;22.89;63.96
47280;BME280;34064;44.942;0.008;2023-06-10T04:06:52;98071.25;;;22.90;63.59
47280;BME280;34064;44.942;0.008;2023-06-10T04:09:19;98071.81;;;22.92;63.88
47280;BME280;34064;44.942;0.008;2023-06-10T04:11:45;98071.63;;;22.94;64.28
47280;BME280;34064;44.942;0.008;2023-06-10T04:14:12;98073.28;;;22.95;63.98
47280;BME280;34064;44.942;0.008;2023-06-10T04:16:39;98077.44;;;22.97;63.89
47280;BME280;34064;44.942;0.008;2023-06-10T04:19:06;98075.34;;;22.99;63.49
47280;BME280;34064;44.942;0.008;2023-06-10T04:21:33;98075.34;;;22.99;64.01
47280;BME280;34064;44.942;0.008;2023-06-10T04:24:00;98069.50;;;23.02;63.92
47280;BME280;34064;44.942;0.008;2023-06-10T04:26:27;98071.78;;;23.05;63.88
47280;BME280;34064;44.942;0.008;2023-06-10T04:28:54;98076.34;;;23.05;64.01
47280;BME280;34064;44.942;0.008;2023-06-10T04:31:20;98066.34;;;23.05;63.68
47280;BME280;34064;44.942;0.008;2023-06-10T04:33:47;98070.72;;;23.06;64.14
47280;BME280;34064;44.942;0.008;2023-06-10T04:36:13;98069.69;;;23.08;63.84
47280;BME280;34064;44.942;0.008;2023-06-10T04:38:40;98077.81;;;23.08;63.97
47280;BME280;34064;44.942;0.008;2023-06-10T04:41:07;98079.91;;;23.05;63.84
47280;BME280;34064;44.942;0.008;2023-06-10T04:43:34;98088.03;;;23.05;63.64
47280;BME280;34064;44.942;0.008;2023-06-10T04:46:01;98085.75;;;23.02;63.70
47280;BME280;34064;44.942;0.008;2023-06-10T04:48:27;98085.13;;;23.00;63.94
47280;BME280;34064;44.942;0.008;2023-06-10T04:50:54;98080.78;;;22.99;63.56
47280;BME280;34064;44.942;0.008;2023-06-10T04:53:23;98086.19;;;22.99;63.61
47280;BME280;34064;44.942;0.008;2023-06-10T04:55:49;98086.59;;;22.96;63.63
47280;BME280;34064;44.942;0.008;2023-06-10T04:58:16;98088.47;;;22.96;63.43
47280;BME280;34064;44.942;0.008;2023-06-10T05:00:43;98102.00;;;22.96;63.35
47280;BME280;34064;44.942;0.008;2023-06-10T05:03:10;98096.59;;;22.96;nan
47280;BME280;34064;44.942;0.008;2023-06-10T05:05:36;98107.88;;;22.93;63.67
47280;BME280;34064;44.942;0.008;2023-06-10T05:08:03;98105.59;;;22.89;63.83
47280;BME280;34064;44.942;0.008;2023-06-10T05:10:36;98102.88;;;22.89;63.80
47280;BME280;34064;44.942;0.008;2023-06-10T05:13:09;98107.03;;;22.92;63.49
47280;BME280;34064;44.942;0.008;2023-06-10T05:15:44;98107.44;;;22.96;63.77
47280;BME280;34064;44.942;0.008;2023-06-10T05:18:13;98108.44;;;23.01;63.64
47280;BME280;34064;44.942;0.008;2023-06-10T05:20:40;98108.66;;;23.06;63.40
47280;BME280;34064;44.942;0.008;2023-06-10T05:23:08;98101.75;;;23.11;63.50
47280;BME280;34064;44.942;0.008;2023-06-10T05:25:38;98104.03;;;23.14;63.60
47280;BME280;34064;44.942;0.008;2023-06-10T05:28:05;98110.69;;;23.18;nan
47280;BME280;34064;44.942;0.008;2023-06-10T05:30:37;98108.59;;;23.20;63.96
47280;BME280;34064;44.942;0.008;2023-06-10T05:33:04;98116.53;;;23.21;63.63
47280;BME280;34064;44.942;0.008;2023-06-10T05:35:33;98109.84;;;23.24;63.66
47280;BME280;34064;44.942;0.008;2023-06-10T05:38:07;98108.56;;;23.27;63.61
47280;BME280;34064;44.942;0.008;2023-06-10T05:40:40;98103.53;;;23.30;63.92
47280;BME280;34064;44.942;0.008;2023-06-10T05:43:07;98103.13;;;23.33;63.78
47280;BME280;34064;44.942;0.008;2023-06-10T05:45:36;98104.34;;;23.38;63.63
47280;BME280;34064;44.942;0.008;2023-06-10T05:48:03;98107.22;;;23.43;63.63
47280;BME280;34064;44.942;0.008;2023-06-10T05:50:30;98108.00;;;23.50;63.38
47280;BME280;34064;44.942;0.008;2023-06-10T05:52:58;98104.44;;;23.56;63.50
47280;BME280;34064;44.942;0.008;2023-06-10T05:55:25;98100.84;;;23.62;63.28
47280;BME280;34064;44.942;0.008;2023-06-10T05:58:01;98103.13;;;23.65;63.21
47280;BME280;34064;44.942;0.008;2023-06-10T06:00:28;98106.63;;;23.73;63.40
47280;BME280;34064;44.942;0.008;2023-06-10T06:02:54;98116.38;;;23.80;63.25
47280;BME280;34064;44.942;0.008;2023-06-10T06:05:23;98108.16;;;23.87;62.95
47280;BME280;34064;44.942;0.008;2023-06-10T06:07:49;98107.72;;;23.90;63.08
47280;BME280;34064;44.942;0.008;2023-06-10T06:10:17;98116.91;;;23.89;63.11
47280;BME280;34064;44.942;0.008;2023-06-10T06:12:44;98122.13;;;23.91;63.20
47280;BME280;34064;44.942;0.008;2023-06-10T06:15:11;98120.88;;;23.93;63.11
47280;BME280;34064;44.942;0.008;2023-06-10T06:17:38;98123.38;;;23.95;62.75
47280;BME280;34064;44.942;0.008;2023-06-10T06:20:05;98125.28;;;23.94;62.94
47280;BME280;34064;44.942;0.008;2023-06-10T06:22:31;98126.91;;;23.95;62.97
47280;BME280;34064;44.942;0.008;2023-06-10T06:24:58;98134.00;;;23.96;63.14
47280;BME280;34064;44.942;0.008;2023-06-10T06:27:24;98130.69;;;23.94;63.25
47280;BME280;34064;44.942;0.008;2023-06-10T06:29:50;98141.53;;;23.94;63.15
47280;BME280;34064;44.942;0.008;2023-06-10T06:32:17;98133.19;;;23.96;62.87
47280;BME280;34064;44.942;0.008;2023-06-10T06:34:43;98134.00;;;23.96;63.18
47280;BME280;34064;44.942;0.008;2023-06-10T06:37:09;98129.19;;;23.98;63.16
47280;BME280;34064;44.942;0.008;2023-06-10T06:39:36;98132.66;;;24.06;62.88
47280;BME280;34064;44.942;0.008;2023-06-10T06:42:02;98131.19;;;24.10;63.03
47280;BME280;34064;44.942;0.008;2023-06-10T06:44:29;98131.13;;;24.17;62.76
47280;BME280;34064;44.942;0.008;2023-06-10T06:46:55;98125.03;;;24.21;62.80
47280;BME280;34064;44.942;0.008;2023-06-10T06:49:21;98129.81;;;24.26;62.87
47280;BME280;34064;44.942;0.008;2023-06-10T06:51:48;98117.81;;;24.34;62.39
47280;BME280;34064;44.942;0.008;2023-06-10T06:54:14;98116.69;;;24.41;62.30
47280;BME280;34064;44.942;0.008;2023-06-10T06:56:40;98121.22;;;24.48;62.30
47280;BME280;34064;44.942;0.008;2023-06-10T06:59:07;98122.69;;;24.50;61.92
47280;BME280;34064;44.942;0.008;2023-06-10T07:01:34;98124.72;;;24.55;62.04
47280;BME280;34064;44.942;0.008;2023-06-10T07:04:01;98127.81;;;24.58;62.44
47280;BME280;34064;44.942;0.008;2023-06-10T07:06:27;98118.75;;;24.65;62.23
47280;BME280;34064;44.942;0.008;2023-06-10T07:08:53;98128.72;;;24.71;62.08
47280;BME280;34064;44.942;0.008;2023-06-10T07:11:20;98112.16;;;24.79;62.06
47280;BME280;34064;44.942;0.008;2023-06-10T07:13:46;98119.53;;;24.90;62.17
47280;BME280;34064;44.942;0.008;2023-06-10T07:16:13;98118.41;;;24.98;62.03
47280;BME280;34064;44.942;0.008;2023-06-10T07:18:40;98123.28;;;25.08;61.66
47280;BME280;34064;44.942;0.008;2023-06-10T07:21:06;98121.16;;;25.10;61.43
47280;BME280;34064;44.942;0.008;2023-06-10T07:23:32;98123.28;;;25.08;61.37
47280;BME280;34064;44.942;0.008;2023-06-10T07:25:59;98129.56;;;25.08;61.31
47280;BME280;34064;44.942;0.008;2023-06-10T07:28:25;98126.59;;;25.10;61.00
47280;BME280;34064;44.942;0.008;2023-06-10T07:30:51;98129.47;;;25.15;61.18
47280;BME280;34064;44.942;0.008;2023-06-10T07:33:18;98130.22;;;25.22;61.14
47280;BME280;34064;44.942;0.008;2023-06-10T07:35:44;98130.59;;;25.26;60.94
47280;BME280;34064;44.942;0.008;2023-06-10T07:38:10;98136.25;;;25.25;61.08
47280;BME280;34064;44.942;0.008;2023-06-10T07:40:37;98131.66;;;25.25;61.07
47280;BME280;34064;44.942;0.008;2023-06-10T07:43:03;98131.03;;;25.23;61.04
47280;BME280;34064;44.942;0.008;2023-06-10T07:45:29;98137.31;;;25.23;60.79
47280;BME280;34064;44.942;0.008;2023-06-10T07:47:56;98140.28;;;25.22;60.96
47280;BME280;34064;44.942;0.008;2023-06-10T07:50:22;98144.88;;;25.21;61.21
47280;BME280;34064;44.942;0.008;2023-06-10T07:52:48;98146.88;;;25.26;60.86
47280;BME280;34064;44.942;0.008;2023-06-10T07:55:15;98162.22;;;25.20;61.05
47280;BME280;34064;44.942;0.008;2023-06-10T07:57:41;98160.78;;;25.18;61.07
47280;BME280;34064;44.942;0.008;2023-06-10T08:00:08;98163.13;;;25.33;60.89
47280;BME280;34064;44.942;0.008;2023-06-10T08:02:35;98152.97;;;25.59;60.43
47280;BME280;34064;44.942;0.008;2023-06-10T08:05:01;98151.22;;;25.64;60.06
47280;BME280;34064;44.942;0.008;2023-06-10T08:07:28;98152.19;;;25.70;59.84
47280;BME280;34064;44.942;0.008;2023-06-10T08:09:54;98153.00;;;25.70;59.71
47280;BME280;34064;44.942;0.008;2023-06-10T08:12:20;98162.81;;;25.72;59.65
47280;BME280;34064;44.942;0.008;2023-06-10T08:14:47;98155.16;;;25.68;59.68
47280;BME280;34064;44.942;0.008;2023-06-10T08:17:13;98159.28;;;25.71;59.08
47280;BME280;34064;44.942;0.008;2023-06-10T08:19:40;98159.66;;;25.75;59.35
47280;BME280;34064;44.942;0.008;2023-06-10T08:22:06;98148.56;;;25.88;59.30
47280;BME280;34064;44.942;0.008;2023-06-10T08:24:33;98149.66;;;25.99;59.02
47280;BME280;34064;44.942;0.008;2023-06-10T08:26:59;98146.22;;;26.04;58.44
47280;BME280;34064;44.942;0.008;2023-06-10T08:29:26;98152.72;;;26.03;58.47
47280;BME280;34064;44.942;0.008;2023-06-10T08:31:52;98154.50;;;25.97;58.57
47280;BME280;34064;44.942;0.008;2023-06-10T08:34:18;98149.34;;;26.19;58.20
47280;BME280;34064;44.942;0.008;2023-06-10T08:36:45;98145.00;;;26.42;57.99
47280;BME280;34064;44.942;0.008;2023-06-10T08:39:11;98125.53;;;26.74;57.27
47280;BME280;34064;44.942;0.008;2023-06-10T08:41:43;98125.91;;;26.89;56.57
47280;BME280;34064;44.942;0.008;2023-06-10T08:44:42;98131.81;;;26.86;56.70
47280;BME280;34064;44.942;0.008;2023-06-10T08:47:16;98150.53;;;26.71;56.64
47280;BME280;34064;44.942;0.008;2023-06-10T08:49:46;98149.47;;;26.60;56.99
47280;BME280;34064;44.942;0.008;2023-06-10T08:52:17;98138.59;;;26.84;56.67
47280;BME280;34064;44.942;0.008;2023-06-10T08:57:17;98127.28;;;27.33;55.21
47280;BME280;34064;44.942;0.008;2023-06-10T08:59:46;98131.94;;;27.32;55.20
47280;BME280;34064;44.942;0.008;2023-06-10T09:02:14;98135.56;;;27.50;54.70
47280;BME280;34064;44.942;0.008;2023-06-10T09:04:43;98123.84;;;27.66;53.91
47280;BME280;34064;44.942;0.008;2023-06-10T09:07:11;98136.72;;;27.54;54.25
47280;BME280;34064;44.942;0.008;2023-06-10T09:09:38;98132.78;;;27.62;54.04
47280;BME280;34064;44.942;0.008;2023-06-10T09:12:05;98137.41;;;27.61;54.11
47280;BME280;34064;44.942;0.008;2023-06-10T09:14:32;98148.00;;;27.58;53.74
47280;BME280;34064;44.942;0.008;2023-06-10T09:16:58;98146.47;;;27.50;54.12
47280;BME280;34064;44.942;0.008;2023-06-10T09:19:26;98143.19;;;27.65;53.84
47280;BME280;34064;44.942;0.008;2023-06-10T09:21:53;98133.47;;;27.86;53.35
47280;BME280;34064;44.942;0.008;2023-06-10T09:24:21;98134.47;;;27.97;52.84
47280;BME280;34064;44.942;0.008;2023-06-10T09:26:48;98116.31;;;28.20;52.33
47280;BME280;34064;44.942;0.008;2023-06-10T09:29:14;98116.13;;;28.43;52.64
47280;BME280;34064;44.942;0.008;2023-06-10T09:31:40;98104.81;;;28.57;52.01
47280;BME280;34064;44.942;0.008;2023-06-10T09:34:13;98098.03;;;28.59;52.06
47280;BME280;34064;44.942;0.008;2023-06-10T09:36:40;98103.00;;;28.62;52.00
47280;BME280;34064;44.942;0.008;2023-06-10T09:39:17;98101.94;;;28.86;51.94
47280;BME280;34064;44.942;0.008;2023-06-10T09:41:45;98103.34;;;28.88;51.70
47280;BME280;34064;44.942;0.008;2023-06-10T09:44:13;98093.13;;;29.01;51.27
47280;BME280;34064;44.942;0.008;2023-06-10T09:46:41;98103.34;;;28.88;51.22
47280;BME280;34064;44.942;0.008;2023-06-10T09:49:07;98101.25;;;28.95;51.25
47280;BME280;34064;44.942;0.008;2023-06-10T09:51:34;98098.19;;;29.14;51.04
47280;BME280;34064;44.942;0.008;2023-06-10T09:54:03;98089.00;;;29.25;50.14
47280;BME280;34064;44.942;0.008;2023-06-10T09:56:36;98090.50;;;29.33;49.53
47280;BME280;34064;44.942;0.008;2023-06-10T09:59:04;98106.84;;;29.06;49.54
47280;BME280;34064;44.942;0.008;2023-06-10T10:01:33;98110.72;;;28.88;50.28
47280;BME280;34064;44.942;0.008;2023-06-10T10:04:00;98114.66;;;28.97;50.10
47280;BME280;34064;44.942;0.008;2023-06-10T10:06:29;98104.19;;;29.11;49.05
47280;BME280;34064;44.942;0.008;2023-06-10T10:08:56;98097.78;;;29.27;48.80
47280;BME280;34064;44.942;0.008;2023-06-10T10:11:23;98116.69;;;29.07;49.03
47280;BME280;34064;44.942;0.008;2023-06-10T10:13:52;98114.72;;;28.80;49.74
47280;BME280;34064;44.942;0.008;2023-06-10T10:16:29;98121.09;;;28.86;49.78
47280;BME280;34064;44.942;0.008;2023-06-10T10:19:02;98106.06;;;29.10;48.61
47280;BME280;34064;44.942;0.008;2023-06-10T10:21:34;98104.47;;;29.37;48.35
47280;BME280;34064;44.942;0.008;2023-06-10T10:24:17;98088.00;;;29.59;47.53
47280;BME280;34064;44.942;0.008;2023-06-10T10:26:47;98085.66;;;29.73;48.07
47280;BME280;34064;44.942;0.008;2023-06-10T10:29:27;98088.94;;;29.70;47.96
47280;BME280;34064;44.942;0.008;2023-06-10T10:31:56;98080.03;;;29.85;47.28
47280;BME280;34064;44.942;0.008;2023-06-10T10:34:37;98076.09;;;30.03;46.65
47280;BME280;34064;44.942;0.008;2023-06-10T10:37:08;98068.59;;;30.26;46.72
47280;BME280;34064;44.942;0.008;2023-06-10T10:39:35;98059.34;;;30.42;46.68
47280;BME280;34064;44.942;0.008;2023-06-10T10:42:03;98054.03;;;30.68;45.42
47280;BME280;34064;44.942;0.008;2023-06-10T10:44:31;98057.59;;;30.69;46.19
47280;BME280;34064;44.942;0.008;2023-06-10T10:47:03;98045.88;;;30.84;45.76
47280;BME280;34064;44.942;0.008;2023-06-10T10:49:31;98047.53;;;30.90;45.80
47280;BME280;34064;44.942;0.008;2023-06-10T10:52:00;98045.59;;;30.90;45.93
47280;BME280;34064;44.942;0.008;2023-06-10T10:54:37;98043.47;;;31.03;45.15
47280;BME280;34064;44.942;0.008;2023-06-10T10:57:13;98038.50;;;31.00;43.32
47280;BME280;34064;44.942;0.008;2023-06-10T10:59:55;98048.13;;;31.07;43.48
47280;BME280;34064;44.942;0.008;2023-06-10T11:02:41;98047.56;;;31.05;43.97
47280;BME280;34064;44.942;0.008;2023-06-10T11:05:10;98039.72;;;31.24;43.21
47280;BME280;34064;44.942;0.008;2023-06-10T11:07:37;98036.72;;;31.47;43.50
47280;BME280;34064;44.942;0.008;2023-06-10T11:10:08;98036.72;;;31.57;43.43
47280;BME280;34064;44.942;0.008;2023-06-10T11:12:52;98036.19;;;31.50;43.01
47280;BME280;34064;44.942;0.008;2023-06-10T11:15:26;98028.75;;;31.66;43.07
47280;BME280;34064;44.942;0.008;2023-06-10T11:18:22;98031.22;;;31.47;43.79
47280;BME280;34064;44.942;0.008;2023-06-10T11:23:38;98060.75;;;31.08;43.72
47280;BME280;34064;44.942;0.008;2023-06-10T11:33:53;98052.59;;;31.19;43.67
47280;BME280;34064;44.942;0.008;2023-06-10T11:36:21;98047.97;;;31.45;43.36
47280;BME280;34064;44.942;0.008;2023-06-10T11:38:48;98037.81;;;31.61;42.77
47280;BME280;34064;44.942;0.008;2023-06-10T11:41:15;98043.56;;;31.65;42.43
47280;BME280;34064;44.942;0.008;2023-06-10T11:43:44;98032.88;;;31.89;42.08
47280;BME280;34064;44.942;0.008;2023-06-10T11:46:15;98026.81;;;32.13;42.30
47280;BME280;34064;44.942;0.008;2023-06-10T11:48:54;98012.44;;;32.47;42.06
47280;BME280;34064;44.942;0.008;2023-06-10T11:51:20;98001.94;;;32.70;41.92
47280;BME280;34064;44.942;0.008;2023-06-10T11:53:48;97987.50;;;32.93;40.92
47280;BME280;34064;44.942;0.008;2023-06-10T11:56:23;97996.44;;;32.70;41.66
47280;BME280;34064;44.942;0.008;2023-06-10T11:59:06;97998.59;;;32.78;40.87
47280;BME280;34064;44.942;0.008;2023-06-10T12:01:37;97983.09;;;32.97;41.13
47280;BME280;34064;44.942;0.008;2023-06-10T12:04:11;97977.72;;;33.17;40.17
47280;BME280;34064;44.942;0.008;2023-06-10T12:06:40;97970.75;;;33.35;39.76
47280;BME280;34064;44.942;0.008;2023-06-10T12:09:14;97973.69;;;33.49;39.43
47280;BME280;34064;44.942;0.008;2023-06-10T12:11:42;97966.69;;;33.62;39.07
47280;BME280;34064;44.942;0.008;2023-06-10T12:14:09;97960.28;;;33.71;38.51
47280;BME280;34064;44.942;0.008;2023-06-10T12:16:36;97967.75;;;33.66;39.29
47280;BME280;34064;44.942;0.008;2023-06-10T12:19:04;97980.25;;;33.53;38.63
47280;BME280;34064;44.942;0.008;2023-06-10T12:21:33;97990.72;;;33.11;38.53
47280;BME280;34064;44.942;0.008;2023-06-10T12:24:10;98017.31;;;32.65;39.39
47280;BME280;34064;44.942;0.008;2023-06-10T12:26:42;98030.06;;;32.35;40.36
47280;BME280;34064;44.942;0.008;2023-06-10T12:29:28;98033.94;;;32.19;41.18
47280;BME280;34064;44.942;0.008;2023-06-10T12:32:00;98028.19;;;32.10;41.00
47280;BME280;34064;44.942;0.008;2023-06-10T12:34:30;98007.53;;;32.39;40.34
47280;BME280;34064;44.942;0.008;2023-06-10T12:36:56;97998.59;;;32.78;39.84
47280;BME280;34064;44.942;0.008;2023-06-10T12:39:23;97972.50;;;33.20;39.44
47280;BME280;34064;44.942;0.008;2023-06-10T12:41:51;97970.63;;;33.50;39.66
47280;BME280;34064;44.942;0.008;2023-06-10T12:44:18;97972.28;;;33.51;38.47
47280;BME280;34064;44.942;0.008;2023-06-10T12:46:44;97969.41;;;33.67;38.20
47280;BME280;34064;44.942;0.008;2023-06-10T12:49:20;97965.91;;;33.85;38.52
47280;BME280;34064;44.942;0.008;2023-06-10T12:51:48;97956.44;;;33.97;38.28
47280;BME280;34064;44.942;0.008;2023-06-10T12:54:14;97978.78;;;33.60;37.00
47280;BME280;34064;44.942;0.008;2023-06-10T12:56:41;97994.25;;;33.17;37.27
47280;BME280;34064;44.942;0.008;2023-06-10T12:59:07;97991.16;;;33.28;36.93
47280;BME280;34064;44.942;0.008;2023-06-10T13:01:33;97998.50;;;32.98;38.25
47280;BME280;34064;44.942;0.008;2023-06-10T13:04:00;98018.94;;;32.77;38.90
47280;BME280;34064;44.942;0.008;2023-06-10T13:06:26;98014.91;;;32.54;38.96
47280;BME280;34064;44.942;0.008;2023-06-10T13:08:52;98015.69;;;32.64;39.18
47280;BME280;34064;44.942;0.008;2023-06-10T13:11:19;98020.16;;;32.50;38.79
47280;BME280;34064;44.942;0.008;2023-06-10T13:13:45;98029.56;;;32.28;39.22
47280;BME280;34064;44.942;0.008;2023-06-10T13:16:12;98033.94;;;32.19;39.33
47280;BME280;34064;44.942;0.008;2023-06-10T13:18:38;98033.94;;;32.09;39.91
47280;BME280;34064;44.942;0.008;2023-06-10T13:21:05;98035.63;;;32.04;39.19